Time;durP1;ratioP1;P1;durP2;ratioP2;P2;SDS_P1;SDS_P2;PMS_P1;PMS_P2;Temp;Humidity;BMP_temperature;BMP_pressure;BME280_temperature;BME280_humidity;BME280_pressure;Samples;Min_cycle;Max_cycle;Signal;HPM_P1;HPM_P2
2021/05/21 00:02:16;;;;;;;8.93;5.95;;;;;;;;;;5097128;28;20027;-69
2021/05/21 00:04:52;;;;;;;10.40;7.03;;;;;;;;;;5096808;28;20020;-70
2021/05/21 00:07:20;;;;;;;9.38;5.95;;;;;;;;;;5095479;28;20054;-70
2021/05/21 00:09:47;;;;;;;9.95;6.18;;;;;;;;;;5095326;28;20024;-70
2021/05/21 00:12:13;;;;;;;18.80;9.15;;;;;;;;;;5096960;28;20039;-69
2021/05/21 00:14:40;;;;;;;11.50;7.13;;;;;;;;;;5096626;28;20013;-69
2021/05/21 00:17:05;;;;;;;11.05;6.50;;;;;;;;;;5096463;28;20371;-67
2021/05/21 00:19:31;;;;;;;18.08;9.63;;;;;;;;;;5096312;28;20049;-67
2021/05/21 00:21:56;;;;;;;18.48;9.73;;;;;;;;;;5096748;28;20028;-66
2021/05/21 00:24:22;;;;;;;13.65;8.25;;;;;;;;;;5096784;28;20492;-67
2021/05/21 00:26:50;;;;;;;8.20;6.38;;;;;;;;;;5096750;28;20119;-67
2021/05/21 00:29:16;;;;;;;20.60;9.50;;;;;;;;;;5096393;28;20024;-67
2021/05/21 00:31:42;;;;;;;21.50;10.02;;;;;;;;;;5096191;28;20473;-66
2021/05/21 00:34:07;;;;;;;26.25;11.80;;;;;;;;;;5096204;28;20030;-67
2021/05/21 00:36:33;;;;;;;28.63;14.02;;;;;;;;;;5096534;28;20082;-66
2021/05/21 00:38:58;;;;;;;32.08;15.85;;;;;;;;;;5096269;28;20465;-66
2021/05/21 00:41:26;;;;;;;29.55;14.07;;;;;;;;;;5096616;28;20020;-66
2021/05/21 00:43:56;;;;;;;26.90;14.23;;;;;;;;;;5096164;28;20012;-66
2021/05/21 00:46:23;;;;;;;10.95;8.18;;;;;;;;;;5096381;28;20054;-66
2021/05/21 00:48:49;;;;;;;12.77;7.07;;;;;;;;;;5096541;28;20020;-67
2021/05/21 00:51:14;;;;;;;11.50;6.65;;;;;;;;;;5096084;28;20073;-67
2021/05/21 00:53:40;;;;;;;8.75;6.82;;;;;;;;;;5095928;28;20110;-67
2021/05/21 00:56:06;;;;;;;10.38;6.97;;;;;;;;;;5094922;28;20024;-67
2021/05/21 00:58:31;;;;;;;10.45;6.40;;;;;;;;;;5094693;28;20016;-67
2021/05/21 01:01:00;;;;;;;9.95;6.90;;;;;;;;;;5095825;28;20043;-69
2021/05/21 01:03:27;;;;;;;11.00;7.15;;;;;;;;;;5096272;28;20095;-69
2021/05/21 01:05:53;;;;;;;10.30;7.20;;;;;;;;;;5095520;28;20081;-69
2021/05/21 01:08:20;;;;;;;9.30;6.60;;;;;;;;;;5095572;28;20056;-69
2021/05/21 01:10:46;;;;;;;10.73;6.88;;;;;;;;;;5095398;28;20050;-69
2021/05/21 01:13:13;;;;;;;8.35;6.90;;;;;;;;;;5094323;28;20102;-69
2021/05/21 01:15:39;;;;;;;10.90;7.05;;;;;;;;;;5095731;28;20028;-69
2021/05/21 01:18:06;;;;;;;12.55;7.13;;;;;;;;;;5095398;28;20024;-69
2021/05/21 01:20:32;;;;;;;8.75;6.63;;;;;;;;;;5095455;28;20032;-68
2021/05/21 01:22:59;;;;;;;10.00;6.47;;;;;;;;;;5095561;28;20023;-69
2021/05/21 01:25:24;;;;;;;10.50;6.47;;;;;;;;;;5095414;28;20467;-69
2021/05/21 01:27:50;;;;;;;12.93;8.00;;;;;;;;;;5095709;28;20031;-69
2021/05/21 01:30:16;;;;;;;10.63;7.07;;;;;;;;;;5095369;28;20043;-69
2021/05/21 01:32:45;;;;;;;10.50;7.00;;;;;;;;;;5095060;28;20377;-67
2021/05/21 01:35:11;;;;;;;11.85;7.55;;;;;;;;;;5095089;28;20048;-66
2021/05/21 01:37:40;;;;;;;12.63;7.80;;;;;;;;;;5095272;28;20054;-66
2021/05/21 01:40:06;;;;;;;11.87;8.13;;;;;;;;;;5093871;28;20111;-66
2021/05/21 01:42:32;;;;;;;10.23;6.90;;;;;;;;;;5094999;28;20108;-66
2021/05/21 01:44:57;;;;;;;12.30;8.13;;;;;;;;;;5093956;28;20032;-67
2021/05/21 01:47:23;;;;;;;13.48;8.35;;;;;;;;;;5095107;28;20016;-68
2021/05/21 01:49:48;;;;;;;12.15;7.82;;;;;;;;;;5095181;28;20024;-70
2021/05/21 01:52:14;;;;;;;10.82;7.43;;;;;;;;;;5094830;28;20012;-70
2021/05/21 01:54:39;;;;;;;14.55;8.98;;;;;;;;;;5094847;28;20028;-70
2021/05/21 01:57:05;;;;;;;18.23;11.57;;;;;;;;;;5094281;28;20055;-70
2021/05/21 01:59:31;;;;;;;14.57;9.45;;;;;;;;;;5093209;28;20078;-70
2021/05/21 02:01:56;;;;;;;13.00;8.77;;;;;;;;;;5094493;28;20099;-70
2021/05/21 02:04:27;;;;;;;15.52;9.55;;;;;;;;;;5094525;28;20026;-69
2021/05/21 02:06:54;;;;;;;12.45;8.45;;;;;;;;;;5093317;28;20020;-70
2021/05/21 02:09:19;;;;;;;13.55;9.10;;;;;;;;;;5092941;28;20039;-69
2021/05/21 02:11:45;;;;;;;8.90;7.50;;;;;;;;;;5094429;28;20032;-69
2021/05/21 02:14:10;;;;;;;12.48;7.88;;;;;;;;;;5093006;28;20020;-69
2021/05/21 02:16:37;;;;;;;8.73;6.88;;;;;;;;;;5094457;28;20110;-69
2021/05/21 02:19:03;;;;;;;9.63;7.30;;;;;;;;;;5094281;28;20016;-69
2021/05/21 02:21:33;;;;;;;10.13;7.10;;;;;;;;;;5093371;28;20028;-69
2021/05/21 02:23:59;;;;;;;11.32;7.20;;;;;;;;;;5094614;28;20473;-69
2021/05/21 02:26:25;;;;;;;9.00;6.65;;;;;;;;;;5094219;28;20461;-67
2021/05/21 02:28:50;;;;;;;10.55;6.72;;;;;;;;;;5094204;28;20072;-67
2021/05/21 02:31:16;;;;;;;10.40;7.50;;;;;;;;;;5093051;28;20077;-67
2021/05/21 02:33:41;;;;;;;9.57;6.97;;;;;;;;;;5094251;28;20039;-67
2021/05/21 02:36:07;;;;;;;10.70;7.85;;;;;;;;;;5093982;28;20112;-67
2021/05/21 02:38:32;;;;;;;10.82;7.93;;;;;;;;;;5094345;28;20491;-66
2021/05/21 02:40:58;;;;;;;15.18;8.52;;;;;;;;;;5092323;28;20035;-66
2021/05/21 02:43:24;;;;;;;14.90;8.75;;;;;;;;;;5093590;28;20094;-66
2021/05/21 02:45:49;;;;;;;10.98;8.40;;;;;;;;;;5092465;28;20098;-66
2021/05/21 02:48:15;;;;;;;18.23;10.40;;;;;;;;;;5093721;28;20382;-67
2021/05/21 02:50:42;;;;;;;14.70;8.02;;;;;;;;;;5093347;28;20123;-67
2021/05/21 02:53:08;;;;;;;12.32;8.80;;;;;;;;;;5093976;28;20024;-66
2021/05/21 02:55:33;;;;;;;14.55;9.55;;;;;;;;;;5093695;28;20028;-66
2021/05/21 02:58:00;;;;;;;16.48;9.60;;;;;;;;;;5093737;28;20022;-67
2021/05/21 03:00:26;;;;;;;17.20;9.48;;;;;;;;;;5093539;28;20025;-67
2021/05/21 03:02:51;;;;;;;15.95;10.13;;;;;;;;;;5092309;28;20065;-69
2021/05/21 03:05:22;;;;;;;13.93;10.18;;;;;;;;;;5093354;28;20024;-69
2021/05/21 03:07:47;;;;;;;;;;;;;;;;;;5094281;28;20463;-69
2021/05/21 03:10:13;;;;;;;14.75;9.88;;;;;;;;;;5093407;28;19930;-68
2021/05/21 03:12:40;;;;;;;11.93;9.02;;;;;;;;;;5093523;28;20035;-68
2021/05/21 03:15:06;;;;;;;17.55;10.57;;;;;;;;;;5093396;28;20024;-69
2021/05/21 03:17:32;;;;;;;16.10;11.20;;;;;;;;;;5093488;28;20035;-69
2021/05/21 03:19:58;;;;;;;14.95;10.55;;;;;;;;;;5093512;28;20026;-69
2021/05/21 03:22:23;;;;;;;19.58;11.45;;;;;;;;;;5096719;28;20111;-67
2021/05/21 03:24:49;;;;;;;15.07;10.07;;;;;;;;;;5097916;28;20020;-67
2021/05/21 03:27:14;;;;;;;11.15;9.02;;;;;;;;;;5097944;28;20478;-66
2021/05/21 03:29:39;;;;;;;14.05;9.75;;;;;;;;;;5096706;28;20024;-66
2021/05/21 03:32:05;;;;;;;14.05;10.32;;;;;;;;;;5097488;28;20470;-67
2021/05/21 03:34:30;;;;;;;14.68;10.15;;;;;;;;;;5096193;28;20016;-67
2021/05/21 03:36:56;;;;;;;18.50;11.02;;;;;;;;;;5096396;28;20028;-69
2021/05/21 03:39:22;;;;;;;18.50;10.60;;;;;;;;;;5097291;28;20077;-69
2021/05/21 03:41:47;;;;;;;15.57;10.40;;;;;;;;;;5097200;28;20076;-68
2021/05/21 03:44:13;;;;;;;16.48;10.43;;;;;;;;;;5097065;28;20434;-67
2021/05/21 03:46:39;;;;;;;15.65;10.88;;;;;;;;;;5096647;28;20024;-69
2021/05/21 03:49:04;;;;;;;12.75;10.38;;;;;;;;;;5097035;28;20477;-68
2021/05/21 03:51:31;;;;;;;15.57;10.82;;;;;;;;;;5096246;28;20028;-69
2021/05/21 03:53:57;;;;;;;13.27;10.18;;;;;;;;;;5097446;28;20020;-67
2021/05/21 03:56:23;;;;;;;14.20;9.68;;;;;;;;;;5097125;28;20043;-67
2021/05/21 03:58:49;;;;;;;12.40;9.35;;;;;;;;;;5095656;28;20486;-67
2021/05/21 04:01:15;;;;;;;13.13;9.70;;;;;;;;;;5097031;28;20436;-67
2021/05/21 04:03:40;;;;;;;14.40;9.55;;;;;;;;;;5096173;28;20065;-67
2021/05/21 04:06:06;;;;;;;12.18;9.40;;;;;;;;;;5096637;28;20024;-67
2021/05/21 04:08:32;;;;;;;14.23;9.05;;;;;;;;;;5095600;28;20369;-67
2021/05/21 04:10:58;;;;;;;12.77;9.18;;;;;;;;;;5096772;28;20028;-67
2021/05/21 04:13:23;;;;;;;13.35;9.25;;;;;;;;;;5096894;28;20077;-67
2021/05/21 04:15:49;;;;;;;13.60;9.02;;;;;;;;;;5096700;28;20040;-67
2021/05/21 04:18:15;;;;;;;14.05;9.13;;;;;;;;;;5096681;28;20027;-67
2021/05/21 04:20:41;;;;;;;12.45;9.68;;;;;;;;;;5094888;28;20035;-67
2021/05/21 04:23:08;;;;;;;13.65;9.13;;;;;;;;;;5096388;28;20069;-67
2021/05/21 04:25:33;;;;;;;18.02;9.68;;;;;;;;;;5096379;28;20052;-66
2021/05/21 04:27:59;;;;;;;15.30;9.80;;;;;;;;;;5095850;28;20109;-67
2021/05/21 04:30:24;;;;;;;14.32;9.73;;;;;;;;;;5095633;28;20032;-67
2021/05/21 04:32:50;;;;;;;13.32;10.00;;;;;;;;;;5092869;28;20183;-67
2021/05/21 04:35:17;;;;;;;19.00;10.23;;;;;;;;;;5095377;28;20066;-67
2021/05/21 04:37:43;;;;;;;16.40;10.95;;;;;;;;;;5094912;28;20556;-67
2021/05/21 04:40:08;;;;;;;15.13;10.20;;;;;;;;;;5095402;28;20111;-67
2021/05/21 04:42:34;;;;;;;14.85;10.73;;;;;;;;;;5095096;28;20404;-67
2021/05/21 04:45:00;;;;;;;14.88;10.63;;;;;;;;;;5096167;28;20078;-67
2021/05/21 04:47:26;;;;;;;15.23;10.73;;;;;;;;;;5095989;28;20016;-66
2021/05/21 04:49:51;;;;;;;14.15;10.50;;;;;;;;;;5095819;28;20027;-67
2021/05/21 04:52:17;;;;;;;13.75;10.43;;;;;;;;;;5095648;28;20428;-67
2021/05/21 04:54:43;;;;;;;14.60;10.20;;;;;;;;;;5095691;28;20032;-67
2021/05/21 04:57:09;;;;;;;15.48;10.45;;;;;;;;;;5094582;28;20077;-67
2021/05/21 04:59:35;;;;;;;13.55;9.55;;;;;;;;;;5094884;28;20036;-67
2021/05/21 05:02:00;;;;;;;14.65;10.30;;;;;;;;;;5094359;28;20405;-67
2021/05/21 05:04:26;;;;;;;14.35;10.07;;;;;;;;;;5095066;28;20111;-67
2021/05/21 05:06:51;;;;;;;15.43;10.45;;;;;;;;;;5095048;28;20103;-67
2021/05/21 05:09:17;;;;;;;13.30;10.35;;;;;;;;;;5095025;28;20027;-67
2021/05/21 05:11:43;;;;;;;16.50;10.30;;;;;;;;;;5094913;28;20019;-67
2021/05/21 05:14:09;;;;;;;13.95;10.98;;;;;;;;;;5094950;28;20036;-67
2021/05/21 05:16:35;;;;;;;16.20;10.50;;;;;;;;;;5095310;28;20024;-68
2021/05/21 05:19:01;;;;;;;14.65;10.93;;;;;;;;;;5095091;28;20169;-67
2021/05/21 05:21:27;;;;;;;9.75;7.75;;;;;;;;;;5095113;28;20023;-67
2021/05/21 05:23:52;;;;;;;11.63;8.98;;;;;;;;;;5095004;28;20482;-67
2021/05/21 05:26:18;;;;;;;12.63;9.60;;;;;;;;;;5095050;28;20016;-67
2021/05/21 05:28:44;;;;;;;9.77;7.68;;;;;;;;;;5095080;28;20032;-67
2021/05/21 05:31:09;;;;;;;10.00;8.52;;;;;;;;;;5095075;28;20074;-67
2021/05/21 05:33:35;;;;;;;9.10;7.47;;;;;;;;;;5095011;28;20020;-67
2021/05/21 05:36:02;;;;;;;11.48;8.52;;;;;;;;;;5094253;28;20355;-67
2021/05/21 05:38:29;;;;;;;11.95;7.95;;;;;;;;;;5095095;28;20461;-67
2021/05/21 05:40:54;;;;;;;10.98;7.40;;;;;;;;;;5094735;28;20020;-67
2021/05/21 05:43:20;;;;;;;7.93;6.88;;;;;;;;;;5094354;28;20089;-67
2021/05/21 05:45:45;;;;;;;7.40;6.15;;;;;;;;;;5093175;28;20520;-67
2021/05/21 05:48:11;;;;;;;9.02;6.72;;;;;;;;;;5093477;28;20031;-67
2021/05/21 05:50:36;;;;;;;8.85;7.93;;;;;;;;;;5094574;28;20020;-67
2021/05/21 05:53:01;;;;;;;12.32;7.85;;;;;;;;;;5094477;28;20028;-67
2021/05/21 05:55:27;;;;;;;11.20;7.57;;;;;;;;;;5094327;28;20026;-67
2021/05/21 05:57:52;;;;;;;9.23;7.47;;;;;;;;;;5094376;28;20028;-67
2021/05/21 06:00:18;;;;;;;6.80;5.95;;;;;;;;;;5094428;28;20074;-66
2021/05/21 06:02:46;;;;;;;11.10;7.80;;;;;;;;;;5094434;28;20443;-67
2021/05/21 06:05:11;;;;;;;9.93;6.60;;;;;;;;;;5094353;28;20046;-66
2021/05/21 06:07:37;;;;;;;5.70;4.72;;;;;;;;;;5094241;28;20020;-66
2021/05/21 06:10:03;;;;;;;7.32;4.70;;;;;;;;;;5094074;28;20024;-66
2021/05/21 06:12:29;;;;;;;5.63;4.28;;;;;;;;;;5094193;28;20028;-66
2021/05/21 06:14:54;;;;;;;4.05;3.65;;;;;;;;;;5094167;28;20020;-67
2021/05/21 06:17:22;;;;;;;4.07;3.28;;;;;;;;;;5094207;28;20115;-66
2021/05/21 06:19:49;;;;;;;3.55;3.25;;;;;;;;;;5094048;28;20020;-66
2021/05/21 06:22:14;;;;;;;4.35;3.13;;;;;;;;;;5094066;28;20063;-66
2021/05/21 06:24:43;;;;;;;3.70;3.40;;;;;;;;;;5094310;28;20053;-66
2021/05/21 06:29:34;;;;;;;4.00;3.05;;;;;;;;;;5093955;28;20024;-66
2021/05/21 06:31:59;;;;;;;2.58;2.38;;;;;;;;;;5092521;28;20054;-67
2021/05/21 06:34:25;;;;;;;2.65;2.20;;;;;;;;;;5092468;28;20371;-66
2021/05/21 06:36:51;;;;;;;4.88;3.53;;;;;;;;;;5094070;28;20098;-66
2021/05/21 06:39:16;;;;;;;6.85;3.33;;;;;;;;;;5094036;28;20028;-66
2021/05/21 06:41:42;;;;;;;3.50;2.63;;;;;;;;;;5093803;28;20028;-66
2021/05/21 06:44:07;;;;;;;3.08;2.78;;;;;;;;;;5094196;28;20095;-66
2021/05/21 06:46:33;;;;;;;3.35;2.63;;;;;;;;;;5093899;28;20027;-67
2021/05/21 06:48:58;;;;;;;2.90;2.67;;;;;;;;;;5094220;28;20027;-67
2021/05/21 06:51:24;;;;;;;2.53;2.33;;;;;;;;;;5092054;28;20360;-67
2021/05/21 06:53:49;;;;;;;1.98;1.88;;;;;;;;;;5093446;28;20046;-67
2021/05/21 06:56:15;;;;;;;2.63;2.42;;;;;;;;;;5093780;28;20354;-67
2021/05/21 06:58:42;;;;;;;4.60;3.50;;;;;;;;;;5093806;28;20020;-67
2021/05/21 07:01:07;;;;;;;4.97;2.42;;;;;;;;;;5093656;28;20035;-68
2021/05/21 07:03:34;;;;;;;2.63;2.30;;;;;;;;;;5094024;28;20019;-67
2021/05/21 07:05:59;;;;;;;3.38;3.08;;;;;;;;;;5093377;28;20020;-67
2021/05/21 07:08:25;;;;;;;3.28;3.03;;;;;;;;;;5093707;28;20008;-67
2021/05/21 07:10:50;;;;;;;2.95;2.67;;;;;;;;;;5093362;28;20035;-67
2021/05/21 07:13:17;;;;;;;3.42;3.13;;;;;;;;;;5093785;28;20076;-67
2021/05/21 07:15:43;;;;;;;1.77;1.67;;;;;;;;;;5093562;28;20076;-67
2021/05/21 07:18:09;;;;;;;2.47;2.13;;;;;;;;;;5093817;28;20016;-67
2021/05/21 07:20:35;;;;;;;3.22;2.92;;;;;;;;;;5093717;28;20028;-67
2021/05/21 07:23:01;;;;;;;3.53;3.22;;;;;;;;;;5093362;28;20028;-68
2021/05/21 07:25:26;;;;;;;3.40;2.85;;;;;;;;;;5093966;28;20451;-67
2021/05/21 07:27:52;;;;;;;2.72;2.40;;;;;;;;;;5093778;28;20035;-67
2021/05/21 07:30:19;;;;;;;2.88;2.67;;;;;;;;;;5092423;28;20032;-67
2021/05/21 07:32:45;;;;;;;2.83;2.38;;;;;;;;;;5092236;28;20016;-67
2021/05/21 07:35:11;;;;;;;2.55;2.30;;;;;;;;;;5091750;28;20135;-67
2021/05/21 07:37:36;;;;;;;3.08;2.85;;;;;;;;;;5093542;28;20470;-67
2021/05/21 07:40:03;;;;;;;2.70;2.50;;;;;;;;;;5093013;28;20385;-66
2021/05/21 07:42:28;;;;;;;3.92;2.10;;;;;;;;;;5093387;28;20070;-67
2021/05/21 07:44:54;;;;;;;1.88;1.70;;;;;;;;;;5093536;28;20023;-66
2021/05/21 07:47:20;;;;;;;2.65;2.47;;;;;;;;;;5093535;28;20012;-67
2021/05/21 07:49:46;;;;;;;3.15;2.72;;;;;;;;;;5093337;28;20043;-66
2021/05/21 07:52:11;;;;;;;2.13;1.08;;;;;;;;;;5093402;28;20020;-66
2021/05/21 07:54:37;;;;;;;2.00;1.90;;;;;;;;;;5093481;28;20067;-67
2021/05/21 07:57:02;;;;;;;2.75;2.25;;;;;;;;;;5093300;28;20074;-66
2021/05/21 07:59:28;;;;;;;3.47;2.05;;;;;;;;;;5093090;28;20081;-66
2021/05/21 08:01:54;;;;;;;2.83;2.10;;;;;;;;;;5092338;28;20077;-67
2021/05/21 08:04:20;;;;;;;2.78;1.90;;;;;;;;;;5093098;28;20024;-67
2021/05/21 08:06:46;;;;;;;1.00;0.93;;;;;;;;;;5093424;28;20020;-67
2021/05/21 08:09:12;;;;;;;2.20;2.00;;;;;;;;;;5096921;28;20024;-67
2021/05/21 08:11:38;;;;;;;2.55;2.35;;;;;;;;;;5096746;28;20053;-67
2021/05/21 08:14:03;;;;;;;2.22;1.75;;;;;;;;;;5096773;28;20024;-67
2021/05/21 08:16:29;;;;;;;3.05;2.10;;;;;;;;;;5096484;28;20099;-67
2021/05/21 08:18:56;;;;;;;2.25;1.83;;;;;;;;;;5095164;28;20126;-67
2021/05/21 08:21:22;;;;;;;2.20;1.98;;;;;;;;;;5094822;28;20382;-67
2021/05/21 08:23:48;;;;;;;5.10;1.77;;;;;;;;;;5096207;28;20383;-67
2021/05/21 08:26:13;;;;;;;1.77;1.60;;;;;;;;;;5129081;27;20027;-67
2021/05/21 08:28:41;;;;;;;1.92;1.40;;;;;;;;;;5096472;28;20483;-67
2021/05/21 08:31:06;;;;;;;1.52;1.42;;;;;;;;;;5096023;28;20023;-67
2021/05/21 08:33:32;;;;;;;3.05;1.65;;;;;;;;;;5096140;28;20024;-68
2021/05/21 08:35:57;;;;;;;1.48;1.38;;;;;;;;;;5095966;28;20058;-67
2021/05/21 08:38:23;;;;;;;1.48;1.30;;;;;;;;;;5095981;28;20030;-67
2021/05/21 08:40:48;;;;;;;1.92;1.48;;;;;;;;;;5095849;28;20028;-67
2021/05/21 08:43:14;;;;;;;1.42;1.33;;;;;;;;;;5094689;28;20028;-68
2021/05/21 08:45:40;;;;;;;1.05;0.98;;;;;;;;;;5095886;28;20015;-67
2021/05/21 08:48:12;;;;;;;2.92;1.67;;;;;;;;;;5094625;28;20028;-67
2021/05/21 08:50:37;;;;;;;1.00;1.00;;;;;;;;;;5095928;28;20032;-68
2021/05/21 08:53:03;;;;;;;2.67;1.50;;;;;;;;;;5095754;28;20020;-68
2021/05/21 08:55:28;;;;;;;1.75;1.05;;;;;;;;;;5095715;28;20541;-68
2021/05/21 08:57:54;;;;;;;1.73;1.10;;;;;;;;;;5095757;28;20016;-67
2021/05/21 09:00:19;;;;;;;1.33;1.23;;;;;;;;;;5095750;28;20028;-68
2021/05/21 09:02:46;;;;;;;1.25;1.13;;;;;;;;;;5095474;28;20477;-68
2021/05/21 09:05:12;;;;;;;1.02;1.02;;;;;;;;;;5095414;28;20462;-67
2021/05/21 09:07:38;;;;;;;0.65;0.65;;;;;;;;;;5094218;28;20020;-68
2021/05/21 09:10:07;;;;;;;0.75;0.75;;;;;;;;;;5095519;28;20024;-68
2021/05/21 09:12:39;;;;;;;0.80;0.80;;;;;;;;;;5095191;28;20018;-68
2021/05/21 09:15:08;;;;;;;0.50;0.50;;;;;;;;;;5095444;28;20036;-68
2021/05/21 09:17:34;;;;;;;0.70;0.70;;;;;;;;;;5095185;28;20016;-68
2021/05/21 09:20:00;;;;;;;1.20;0.80;;;;;;;;;;5094006;28;20032;-68
2021/05/21 09:22:25;;;;;;;2.15;1.00;;;;;;;;;;5095174;28;20103;-68
2021/05/21 09:24:52;;;;;;;1.13;1.02;;;;;;;;;;5095216;28;20070;-67
2021/05/21 09:27:18;;;;;;;0.85;0.85;;;;;;;;;;5095022;28;20023;-67
2021/05/21 09:29:47;;;;;;;1.85;0.70;;;;;;;;;;5094981;28;20122;-68
2021/05/21 09:32:18;;;;;;;1.38;1.00;;;;;;;;;;5093639;28;20114;-68
2021/05/21 09:34:48;;;;;;;0.80;0.80;;;;;;;;;;5094557;28;20040;-67
2021/05/21 09:37:21;;;;;;;1.13;0.73;;;;;;;;;;5095256;28;20028;-68
2021/05/21 09:40:07;;;;;;;0.60;0.60;;;;;;;;;;5093625;28;20031;-67
2021/05/21 09:42:43;;;;;;;0.85;0.85;;;;;;;;;;5095058;28;20403;-67
2021/05/21 09:45:17;;;;;;;0.60;0.60;;;;;;;;;;5095299;28;20044;-67
2021/05/21 09:47:54;;;;;;;0.63;0.50;;;;;;;;;;5095071;28;20028;-65
2021/05/21 09:50:29;;;;;;;0.80;0.80;;;;;;;;;;5095448;28;20028;-66
2021/05/21 09:52:59;;;;;;;0.40;0.40;;;;;;;;;;5095027;28;20032;-66
2021/05/21 09:55:29;;;;;;;1.83;0.60;;;;;;;;;;5094821;28;20030;-66
2021/05/21 09:57:54;;;;;;;;;;;;;;;;;;5095596;28;20059;-66
2021/05/21 10:00:20;;;;;;;0.47;0.47;;;;;;;;;;5094675;28;20004;-66
2021/05/21 10:02:45;;;;;;;0.80;0.57;;;;;;;;;;5094712;28;20111;-67
2021/05/21 10:05:11;;;;;;;1.15;0.80;;;;;;;;;;5094866;28;20058;-67
2021/05/21 10:07:36;;;;;;;1.27;0.80;;;;;;;;;;5094708;28;20496;-67
2021/05/21 10:10:03;;;;;;;1.15;0.63;;;;;;;;;;5093717;28;20031;-67
2021/05/21 10:12:30;;;;;;;0.80;0.80;;;;;;;;;;5095147;28;20371;-67
2021/05/21 10:14:56;;;;;;;0.70;0.70;;;;;;;;;;5094806;28;20380;-67
2021/05/21 10:17:24;;;;;;;0.73;0.73;;;;;;;;;;5094567;28;20105;-67
2021/05/21 10:19:53;;;;;;;2.22;0.90;;;;;;;;;;5094264;28;20359;-66
2021/05/21 10:22:31;;;;;;;0.70;0.70;;;;;;;;;;5094846;28;20442;-67
2021/05/21 10:25:04;;;;;;;1.25;0.60;;;;;;;;;;5094784;28;20032;-67
2021/05/21 10:27:31;;;;;;;1.00;0.90;;;;;;;;;;5094293;28;20043;-67
2021/05/21 10:30:07;;;;;;;0.75;0.63;;;;;;;;;;5094689;28;20024;-66
2021/05/21 10:32:32;;;;;;;0.90;0.90;;;;;;;;;;5094199;28;20047;-69
2021/05/21 10:34:58;;;;;;;2.28;0.68;;;;;;;;;;5093971;28;20040;-70
2021/05/21 10:37:44;;;;;;;1.35;0.80;;;;;;;;;;5094505;28;20043;-70
2021/05/21 10:40:28;;;;;;;0.40;0.40;;;;;;;;;;5094471;28;20127;-70
2021/05/21 10:43:16;;;;;;;1.00;0.85;;;;;;;;;;5094676;28;20073;-70
2021/05/21 10:45:54;;;;;;;0.77;0.77;;;;;;;;;;5094309;28;20032;-70
2021/05/21 10:48:21;;;;;;;;;;;;;;;;;;5092889;28;20478;-69
2021/05/21 10:50:46;;;;;;;0.75;0.70;;;;;;;;;;5092492;28;19957;-70
2021/05/21 10:53:13;;;;;;;2.08;0.80;;;;;;;;;;5093611;28;20054;-70
2021/05/21 10:55:51;;;;;;;3.60;0.90;;;;;;;;;;5092130;28;20020;-69
2021/05/21 10:58:18;;;;;;;1.15;0.90;;;;;;;;;;5093647;28;20533;-69
2021/05/21 11:01:03;;;;;;;0.80;0.80;;;;;;;;;;5092069;28;20430;-67
2021/05/21 11:03:29;;;;;;;0.68;0.68;;;;;;;;;;5093951;28;20433;-67
2021/05/21 11:06:14;;;;;;;0.60;0.60;;;;;;;;;;5093679;28;20024;-67
2021/05/21 11:08:46;;;;;;;0.82;0.63;;;;;;;;;;5093995;28;20055;-67
2021/05/21 11:11:13;;;;;;;2.08;0.80;;;;;;;;;;5093947;28;20114;-67
2021/05/21 11:13:38;;;;;;;0.68;0.68;;;;;;;;;;5094092;28;20104;-67
2021/05/21 11:16:08;;;;;;;1.52;0.80;;;;;;;;;;5093774;28;20119;-67
2021/05/21 11:18:34;;;;;;;0.90;0.60;;;;;;;;;;5093682;28;20028;-67
2021/05/21 11:21:03;;;;;;;2.25;0.70;;;;;;;;;;5093581;28;20085;-67
2021/05/21 11:23:36;;;;;;;0.90;0.70;;;;;;;;;;5093301;28;20077;-67
2021/05/21 11:26:12;;;;;;;0.95;0.82;;;;;;;;;;5093344;28;20462;-67
2021/05/21 11:28:59;;;;;;;0.35;0.35;;;;;;;;;;5093197;28;20071;-67
2021/05/21 11:31:27;;;;;;;0.40;0.40;;;;;;;;;;5093123;28;20044;-66
2021/05/21 11:33:57;;;;;;;0.47;0.47;;;;;;;;;;5093438;28;20342;-65
2021/05/21 11:36:24;;;;;;;2.35;0.63;;;;;;;;;;5093170;28;20051;-67
2021/05/21 11:38:50;;;;;;;1.52;0.60;;;;;;;;;;5093279;28;20028;-67
2021/05/21 11:41:16;;;;;;;0.47;0.47;;;;;;;;;;5093658;28;20458;-69
2021/05/21 11:43:42;;;;;;;0.40;0.40;;;;;;;;;;5096573;28;20012;-69
2021/05/21 11:46:13;;;;;;;0.98;0.50;;;;;;;;;;5097459;28;20031;-70
2021/05/21 11:48:39;;;;;;;0.70;0.70;;;;;;;;;;5096282;28;20051;-69
2021/05/21 11:51:15;;;;;;;0.68;0.68;;;;;;;;;;5097285;28;20082;-70
2021/05/21 11:54:02;;;;;;;0.20;0.20;;;;;;;;;;5097177;28;20036;-70
2021/05/21 11:56:29;;;;;;;0.38;0.38;;;;;;;;;;5097169;28;20024;-70
2021/05/21 11:59:01;;;;;;;0.57;0.57;;;;;;;;;;5097211;28;20028;-70
2021/05/21 12:01:27;;;;;;;0.40;0.40;;;;;;;;;;5096981;28;20024;-70
2021/05/21 12:03:52;;;;;;;0.77;0.52;;;;;;;;;;5097071;28;20012;-69
2021/05/21 12:06:18;;;;;;;0.52;0.52;;;;;;;;;;5097055;28;20065;-69
2021/05/21 12:08:46;;;;;;;0.93;0.50;;;;;;;;;;5096969;28;20020;-69
2021/05/21 12:11:11;;;;;;;0.60;0.60;;;;;;;;;;5097258;28;20390;-69
2021/05/21 12:13:37;;;;;;;0.60;0.60;;;;;;;;;;5095299;28;20024;-69
2021/05/21 12:16:12;;;;;;;0.50;0.40;;;;;;;;;;5096870;28;20492;-70
2021/05/21 12:18:37;;;;;;;2.15;0.68;;;;;;;;;;5096748;28;20119;-70
2021/05/21 12:21:03;;;;;;;0.80;0.80;;;;;;;;;;5096794;28;20146;-69
2021/05/21 12:23:34;;;;;;;0.60;0.60;;;;;;;;;;5095323;28;20111;-70
2021/05/21 12:26:02;;;;;;;;;;;;;;;;;;5097022;28;20028;-70
2021/05/21 12:28:29;;;;;;;1.75;0.40;;;;;;;;;;5096590;28;19916;-70
2021/05/21 12:30:57;;;;;;;0.50;0.50;;;;;;;;;;5096747;28;20077;-69
2021/05/21 12:33:22;;;;;;;0.68;0.50;;;;;;;;;;5096509;28;20020;-71
2021/05/21 12:35:48;;;;;;;1.67;0.60;;;;;;;;;;5096084;28;20056;-71
2021/05/21 12:38:13;;;;;;;0.50;0.50;;;;;;;;;;5096381;28;20513;-72
2021/05/21 12:41:08;;;;;;;0.40;0.40;;;;;;;;;;5096271;28;20036;-72
2021/05/21 12:43:34;;;;;;;0.63;0.63;;;;;;;;;;5082243;28;20039;-72
2021/05/21 12:46:04;;;;;;;0.82;0.50;;;;;;;;;;5096202;28;20012;-72
2021/05/21 12:48:40;;;;;;;1.88;0.63;;;;;;;;;;5096280;28;20470;-72
2021/05/21 12:51:29;;;;;;;1.38;0.60;;;;;;;;;;5095604;28;20036;-72
2021/05/21 12:54:14;;;;;;;0.60;0.60;;;;;;;;;;5086808;28;20475;-72
2021/05/21 12:56:41;;;;;;;0.52;0.52;;;;;;;;;;5096080;28;20559;-72
2021/05/21 12:59:10;;;;;;;1.48;0.73;;;;;;;;;;5096107;28;20020;-72
2021/05/21 13:01:37;;;;;;;1.27;0.90;;;;;;;;;;5095866;28;20031;-72
2021/05/21 13:04:10;;;;;;;2.35;0.70;;;;;;;;;;5095969;28;20366;-72
2021/05/21 13:06:35;;;;;;;0.98;0.98;;;;;;;;;;5095670;28;20121;-72
2021/05/21 13:09:03;;;;;;;1.13;0.70;;;;;;;;;;5095703;28;20024;-72
2021/05/21 13:11:29;;;;;;;0.73;0.68;;;;;;;;;;5095770;28;20024;-72
2021/05/21 13:13:58;;;;;;;0.70;0.70;;;;;;;;;;5095595;28;20107;-72
2021/05/21 13:16:24;;;;;;;0.60;0.60;;;;;;;;;;5095698;28;20036;-72
2021/05/21 13:18:50;;;;;;;2.03;0.70;;;;;;;;;;5095452;28;20482;-72
2021/05/21 13:21:16;;;;;;;0.85;0.60;;;;;;;;;;5095623;28;20364;-72
2021/05/21 13:23:42;;;;;;;1.90;0.90;;;;;;;;;;5095411;28;20039;-72
2021/05/21 13:26:07;;;;;;;1.15;0.70;;;;;;;;;;5095411;28;20157;-72
2021/05/21 13:28:40;;;;;;;1.15;0.82;;;;;;;;;;5095532;28;20031;-72
2021/05/21 13:31:07;;;;;;;0.70;0.60;;;;;;;;;;5095694;28;20112;-67
2021/05/21 13:33:34;;;;;;;0.63;0.63;;;;;;;;;;5095465;28;20048;-66
2021/05/21 13:36:01;;;;;;;3.55;0.70;;;;;;;;;;5092750;28;20500;-64
2021/05/21 13:38:27;;;;;;;3.53;0.80;;;;;;;;;;5095113;28;20110;-66
2021/05/21 13:40:54;;;;;;;2.28;0.77;;;;;;;;;;5095007;28;20550;-68
2021/05/21 13:43:21;;;;;;;0.95;0.70;;;;;;;;;;5094682;28;20031;-68
2021/05/21 13:45:47;;;;;;;0.82;0.70;;;;;;;;;;5093543;28;20089;-69
2021/05/21 13:48:13;;;;;;;0.85;0.68;;;;;;;;;;5094743;28;20470;-68
2021/05/21 13:50:39;;;;;;;0.80;0.80;;;;;;;;;;5095079;28;20150;-68
2021/05/21 13:53:05;;;;;;;0.60;0.60;;;;;;;;;;5094658;28;20024;-69
2021/05/21 13:55:31;;;;;;;0.77;0.30;;;;;;;;;;5093902;28;20509;-69
2021/05/21 13:57:56;;;;;;;0.40;0.40;;;;;;;;;;5094852;28;20052;-69
2021/05/21 14:00:22;;;;;;;1.20;1.00;;;;;;;;;;5093353;28;20032;-69
2021/05/21 14:02:47;;;;;;;1.52;1.35;;;;;;;;;;5095042;28;20020;-69
2021/05/21 14:05:13;;;;;;;2.08;1.10;;;;;;;;;;5094296;28;20020;-69
2021/05/21 14:07:38;;;;;;;0.90;0.90;;;;;;;;;;5094675;28;20020;-69
2021/05/21 14:10:04;;;;;;;1.00;0.90;;;;;;;;;;5094824;28;20504;-69
2021/05/21 14:12:30;;;;;;;1.00;0.90;;;;;;;;;;5094407;28;20030;-69
2021/05/21 14:14:55;;;;;;;1.05;0.93;;;;;;;;;;5093003;28;20035;-68
2021/05/21 14:17:22;;;;;;;1.08;0.80;;;;;;;;;;5094514;28;20020;-68
2021/05/21 14:19:48;;;;;;;1.50;0.80;;;;;;;;;;5094562;28;20481;-69
2021/05/21 14:22:15;;;;;;;1.08;0.98;;;;;;;;;;5090064;28;20027;-69
2021/05/21 14:24:41;;;;;;;1.08;0.98;;;;;;;;;;5094419;28;20032;-69
2021/05/21 14:27:07;;;;;;;2.97;1.13;;;;;;;;;;5094442;28;20039;-69
2021/05/21 14:29:33;;;;;;;2.92;1.05;;;;;;;;;;5094265;28;20028;-69
2021/05/21 14:31:58;;;;;;;1.60;0.93;;;;;;;;;;5094169;28;20024;-69
2021/05/21 14:34:24;;;;;;;1.42;1.30;;;;;;;;;;5094008;28;20039;-70
2021/05/21 14:36:50;;;;;;;2.53;1.35;;;;;;;;;;5093915;28;20032;-69
2021/05/21 14:39:16;;;;;;;1.67;1.33;;;;;;;;;;5091731;28;20036;-69
2021/05/21 14:41:44;;;;;;;2.00;1.02;;;;;;;;;;5092272;28;20020;-69